Terminal Aerodrome Forecast
Issued by NWS

Home | Current Version | Previous Version | Text Only | Print | Product List | Glossary On
Versions: 1 2 3 4 5 6 7 8 9 10 11 12 13 14
000
FTUS44 KTSA 042320
TAFBVO
TAF
KBVO 042320Z 0500/0524 20005KT P6SM SCT050 BKN100
     FM050600 10003KT P6SM VCTS BKN050CB OVC100
      TEMPO 0508/0512 VRB15G25KT 3SM TSRA BKN015CB
     FM051200 14006KT 5SM -TSRA BKN015CB OVC100
     FM051600 16006KT P6SM SCT100 BKN250 PROB30 0521/0524 -TSRA
      BKN050CB=

USA.gov is the U.S. government's official web portal to all federal, state and local government web resources and services.